Startpagina
METAR-TAF:

METAR-TAF

Vliegvelden :

Luchthaven Conakry Internationaal

Conakry, Guinee

breedte: 09-34N, lengte: 013-37W, hoogte: 26 m

Actueel weer

Dit bericht is 1 uur en het 48 minuten geleden gemaakt, om 21:00 UTC
Wind 8 kt uit het westen
Temperatuur 28°C
Vochtigheid 70%
Druk 1011 hPa

METAR: GUCY 212100Z 28008KT CQVOK 28/22 Q1011 NOSIG

Tijdstip: 22:48 (22:48 UTC)

Verwachting

Dit bericht is 5 uur en het 48 minuten geleden gemaakt, om 17:00 UTC
Verwachting geldig van 21 om 18 UTC tot 22 om 24 UTC
Wind 8 kt uit het westen
Zicht 10 km of meer
Weinig wolken op 1500 ft
Verspreide wolken op 11000 ft
Tijdelijke
van 22 om 04 UTC tot 22 om 10 UTC
Wind 2 kt uit variabele richting
Verspreide wolken op 1500 ft
Gebroken wolken op 11000 ft

TAF: GUCY 211700Z 2118/2224 28008KT 9999 FEW015 SCT110 TEMPO 2204/2210 VRB02KT SCT015 BKN110

Waarnemingen en weersverwachtingen van meer dan 4000 vliegvelden (METAR en TAF).

De beschikbare stations zijn de gele en rode punten op de kaart.

Ga met uw muis naar het station om de naam te zien.

Klik dan om waarnemingen en weersverwachtingen te zien.

kaart wijzigen: klik op de groene knoppen met een zwart kruis om in te zoomen, op de groene knop met een streepje om uit te zoomen of op de groene pijlen voor aangrenzende kaarten.


METAR-TAF: